createdAt,value
2019-05-28T00:00:30.685Z,94.80
2019-05-28T00:04:41.084Z,94.80
2019-05-28T00:08:51.456Z,94.80
2019-05-28T00:13:01.759Z,94.80
2019-05-28T00:17:12.058Z,94.80
2019-05-28T00:21:22.258Z,94.80
2019-05-28T00:25:32.463Z,94.90
2019-05-28T00:29:42.800Z,95.00
2019-05-28T00:33:53.717Z,95.20
2019-05-28T00:38:04.139Z,95.40
2019-05-28T00:42:14.369Z,95.60
2019-05-28T00:46:24.635Z,95.80
2019-05-28T00:50:35.001Z,95.90
2019-05-28T00:54:45.433Z,95.80
2019-05-28T00:58:56.250Z,95.70
2019-05-28T01:03:06.537Z,95.60
2019-05-28T01:07:16.780Z,95.50
2019-05-28T01:11:27.064Z,95.30
2019-05-28T01:15:37.886Z,95.20
2019-05-28T01:19:48.384Z,95.10
2019-05-28T01:23:58.634Z,95.00
2019-05-28T01:28:08.960Z,95.10
2019-05-28T01:32:19.443Z,95.00
2019-05-28T01:36:29.851Z,95.00
2019-05-28T01:40:40.893Z,95.10
2019-05-28T01:44:53.302Z,95.10
2019-05-28T01:49:03.985Z,95.20
2019-05-28T01:53:14.288Z,95.40
2019-05-28T01:57:24.629Z,95.50
2019-05-28T02:01:34.904Z,95.60
2019-05-28T02:05:45.506Z,95.70
2019-05-28T02:09:55.827Z,95.70
2019-05-28T02:14:06.197Z,95.80
2019-05-28T02:18:16.550Z,95.90
2019-05-28T02:22:27.424Z,96.00
2019-05-28T02:26:37.771Z,96.00
2019-05-28T02:30:47.987Z,96.10
2019-05-28T02:34:58.192Z,96.00
2019-05-28T02:39:09.380Z,96.10
2019-05-28T02:43:19.795Z,96.10
2019-05-28T02:47:30.193Z,96.20
2019-05-28T02:51:41.740Z,96.20
2019-05-28T02:55:52.591Z,96.20
2019-05-28T03:00:04.888Z,96.10
2019-05-28T03:04:15.967Z,96.10
2019-05-28T03:08:31.201Z,96.20
2019-05-28T03:12:41.592Z,96.10
2019-05-28T03:16:54.838Z,96.10
2019-05-28T03:21:05.973Z,96.10
2019-05-28T03:25:18.066Z,96.00
2019-05-28T03:29:28.450Z,95.90
2019-05-28T03:33:38.787Z,95.80
2019-05-28T03:37:49.931Z,95.70
2019-05-28T03:42:00.337Z,95.70
2019-05-28T03:46:10.665Z,95.60
2019-05-28T03:50:21.571Z,95.60
2019-05-28T03:54:31.905Z,95.60
2019-05-28T03:58:42.269Z,95.40
2019-05-28T04:02:52.679Z,95.30
2019-05-28T04:07:03.119Z,95.70
2019-05-28T04:11:13.450Z,95.30
2019-05-28T04:15:23.746Z,95.40
2019-05-28T04:19:34.074Z,95.40
2019-05-28T04:23:44.608Z,95.30
2019-05-28T04:27:55.508Z,95.10
2019-05-28T04:32:05.820Z,95.10
2019-05-28T04:36:16.276Z,94.90
2019-05-28T04:40:26.521Z,94.80
2019-05-28T04:44:36.853Z,94.50
2019-05-28T04:48:47.177Z,94.10
2019-05-28T04:52:57.438Z,93.70
2019-05-28T04:57:07.802Z,93.50
2019-05-28T05:01:18.157Z,93.40
2019-05-28T05:05:28.494Z,93.40
2019-05-28T05:09:39.047Z,93.40
2019-05-28T05:13:49.615Z,93.30
2019-05-28T05:18:00.824Z,93.40
2019-05-28T05:22:11.533Z,93.40
2019-05-28T05:26:22.830Z,93.40
2019-05-28T05:30:33.314Z,93.50
2019-05-28T05:34:43.825Z,94.00
2019-05-28T05:38:54.098Z,93.70
2019-05-28T05:43:05.556Z,93.60
2019-05-28T05:47:15.869Z,93.50
2019-05-28T05:51:26.160Z,93.40
2019-05-28T05:55:36.633Z,93.20
2019-05-28T05:59:47.834Z,93.20
2019-05-28T06:03:59.508Z,93.10
2019-05-28T06:08:09.887Z,93.00
2019-05-28T06:12:20.220Z,92.90
2019-05-28T06:16:30.550Z,92.70
2019-05-28T06:20:40.878Z,93.10
2019-05-28T06:24:51.223Z,93.30
2019-05-28T06:29:01.551Z,93.60
2019-05-28T06:33:12.809Z,92.20
2019-05-28T06:37:23.165Z,91.60
2019-05-28T06:41:33.633Z,91.40
2019-05-28T06:45:44.545Z,91.20
2019-05-28T06:49:54.979Z,90.70
2019-05-28T06:54:05.328Z,89.80
2019-05-28T06:58:39.619Z,88.10
2019-05-28T07:02:45.354Z,85.40
2019-05-28T07:06:59.043Z,84.10
2019-05-28T07:11:08.377Z,80.60
2019-05-28T07:15:18.966Z,79.40
2019-05-28T07:19:29.428Z,78.80
2019-05-28T07:23:39.768Z,77.40
2019-05-28T07:27:49.968Z,75.10
2019-05-28T07:32:00.311Z,74.10
2019-05-28T07:36:14.027Z,73.00
2019-05-28T07:40:31.828Z,72.50
2019-05-28T07:44:36.641Z,74.50
2019-05-28T07:48:47.024Z,72.00
2019-05-28T07:53:00.142Z,73.50
2019-05-28T07:57:12.596Z,69.90
2019-05-28T08:01:23.018Z,69.90
2019-05-28T08:05:34.618Z,68.00
2019-05-28T08:09:44.968Z,68.70
2019-05-28T08:13:56.492Z,68.20
2019-05-28T08:18:07.280Z,67.80
2019-05-28T08:22:17.722Z,68.70
2019-05-28T08:26:28.061Z,68.00
2019-05-28T08:30:39.385Z,66.20
2019-05-28T08:35:04.215Z,66.10
2019-05-28T08:39:02.184Z,65.70
2019-05-28T08:43:12.419Z,66.10
2019-05-28T08:47:23.121Z,63.00
2019-05-28T08:51:35.293Z,63.60
2019-05-28T08:55:45.497Z,63.10
2019-05-28T08:59:55.934Z,61.10
2019-05-28T09:04:06.247Z,60.30
2019-05-28T09:08:16.673Z,59.40
2019-05-28T09:12:26.902Z,59.50
2019-05-28T09:16:37.111Z,59.10
2019-05-28T09:20:47.457Z,57.80
2019-05-28T09:24:57.737Z,57.80
2019-05-28T09:29:08.460Z,57.30
2019-05-28T09:33:18.845Z,56.50
2019-05-28T09:37:29.205Z,56.20
2019-05-28T09:41:39.551Z,55.90
2019-05-28T09:45:49.836Z,56.10
2019-05-28T09:50:00.338Z,55.60
2019-05-28T09:54:10.712Z,53.70
2019-05-28T09:58:22.676Z,54.10
2019-05-28T10:02:32.883Z,52.20
2019-05-28T10:06:43.219Z,49.40
2019-05-28T10:10:53.422Z,49.00
2019-05-28T10:15:08.181Z,47.90
2019-05-28T10:19:18.432Z,47.70
2019-05-28T10:23:28.992Z,48.00
2019-05-28T10:27:39.453Z,47.20
2019-05-28T10:31:49.752Z,47.40
2019-05-28T10:36:00.057Z,46.50
2019-05-28T10:40:10.889Z,46.10
2019-05-28T10:44:21.223Z,44.00
2019-05-28T10:48:31.426Z,44.40
2019-05-28T10:52:41.637Z,45.80
2019-05-28T10:56:51.972Z,46.10
2019-05-28T11:01:02.187Z,46.90
2019-05-28T11:05:13.539Z,46.90
2019-05-28T11:09:23.790Z,47.40
2019-05-28T11:13:34.073Z,48.10
2019-05-28T11:17:44.418Z,48.00
2019-05-28T11:21:54.658Z,48.70
2019-05-28T11:26:05.550Z,49.20
2019-05-28T11:30:16.205Z,48.20
2019-05-28T11:34:26.618Z,47.50
2019-05-28T11:38:36.913Z,48.50
2019-05-28T11:42:47.351Z,48.10
2019-05-28T11:46:57.734Z,47.30
2019-05-28T11:51:07.941Z,47.40
2019-05-28T11:55:19.288Z,48.20
2019-05-28T11:59:29.685Z,48.90
2019-05-28T12:03:40.093Z,49.20
2019-05-28T12:07:51.765Z,49.30
2019-05-28T12:12:02.289Z,48.90
2019-05-28T12:16:12.549Z,48.90
2019-05-28T12:20:24.672Z,48.50
2019-05-28T12:24:34.986Z,48.80
2019-05-28T12:28:45.289Z,48.00
2019-05-28T12:32:55.530Z,47.80
2019-05-28T12:37:05.850Z,49.50
2019-05-28T12:41:16.399Z,48.40
2019-05-28T12:45:35.625Z,47.20
2019-05-28T12:49:39.075Z,47.40
2019-05-28T12:53:51.406Z,48.00
2019-05-28T12:58:01.378Z,48.60
2019-05-28T13:02:11.737Z,47.60
2019-05-28T13:06:22.174Z,48.30
2019-05-28T13:10:32.384Z,48.40
2019-05-28T13:14:42.580Z,48.60
2019-05-28T13:18:53.217Z,48.80
2019-05-28T13:23:03.527Z,46.80
2019-05-28T13:27:18.118Z,47.30
2019-05-28T13:31:25.803Z,48.40
2019-05-28T13:35:36.027Z,48.90
2019-05-28T13:39:46.323Z,48.20
2019-05-28T13:43:56.998Z,48.70
2019-05-28T13:48:08.630Z,48.50
2019-05-28T13:52:19.575Z,48.70
2019-05-28T13:56:30.323Z,49.10
2019-05-28T14:00:44.102Z,48.70
2019-05-28T14:04:55.208Z,47.90
2019-05-28T14:09:08.015Z,48.60
2019-05-28T14:13:18.524Z,48.10
2019-05-28T14:17:28.988Z,48.20
2019-05-28T14:21:39.574Z,48.70
2019-05-28T14:25:49.793Z,49.20
2019-05-28T14:29:59.993Z,49.30
2019-05-28T14:34:10.329Z,49.30
2019-05-28T14:38:20.742Z,48.90
2019-05-28T14:42:30.976Z,49.50
2019-05-28T14:46:41.362Z,48.70
2019-05-28T14:50:51.657Z,48.20
2019-05-28T14:55:01.989Z,47.60
2019-05-28T14:59:12.586Z,47.30
2019-05-28T15:03:22.925Z,48.40
2019-05-28T15:07:34.835Z,49.30
2019-05-28T15:11:45.172Z,50.00
2019-05-28T15:15:56.749Z,50.20
2019-05-28T15:20:07.529Z,50.60
2019-05-28T15:24:18.624Z,50.70
2019-05-28T15:28:29.109Z,49.60
2019-05-28T15:32:40.967Z,49.10
2019-05-28T15:36:51.410Z,49.00
2019-05-28T15:41:01.630Z,48.60
2019-05-28T15:45:13.073Z,48.90
2019-05-28T15:49:24.895Z,48.20
2019-05-28T15:53:35.192Z,47.60
2019-05-28T15:57:46.528Z,47.60
2019-05-28T16:01:56.902Z,47.50
2019-05-28T16:06:07.215Z,47.30
2019-05-28T16:10:18.165Z,47.00
2019-05-28T16:14:30.073Z,46.40
2019-05-28T16:18:40.397Z,45.90
2019-05-28T16:22:50.749Z,45.90
2019-05-28T16:27:00.946Z,45.40
2019-05-28T16:31:13.153Z,45.70
2019-05-28T16:35:23.211Z,46.30
2019-05-28T16:39:33.548Z,46.60
2019-05-28T16:43:45.430Z,46.60
2019-05-28T16:47:56.330Z,47.00
2019-05-28T16:52:06.704Z,47.60
2019-05-28T16:56:19.776Z,48.30
2019-05-28T17:00:30.970Z,47.80
2019-05-28T17:04:41.426Z,48.30
2019-05-28T17:08:51.789Z,48.40
2019-05-28T17:13:02.117Z,48.50
2019-05-28T17:17:12.435Z,48.70
2019-05-28T17:21:23.346Z,48.90
2019-05-28T17:25:33.549Z,49.30
2019-05-28T17:29:44.051Z,49.40
2019-05-28T17:33:54.361Z,49.20
2019-05-28T17:38:04.702Z,49.50
2019-05-28T17:42:14.989Z,49.90
2019-05-28T17:46:25.194Z,50.10
2019-05-28T17:50:35.402Z,50.70
2019-05-28T17:54:45.753Z,52.20
2019-05-28T17:58:56.113Z,52.30
2019-05-28T18:03:07.108Z,53.00
2019-05-28T18:07:17.424Z,53.40
2019-05-28T18:11:28.110Z,54.00
2019-05-28T18:15:38.417Z,54.30
2019-05-28T18:19:48.618Z,54.50
2019-05-28T18:23:58.964Z,58.80
2019-05-28T18:28:09.300Z,63.50
2019-05-28T18:32:19.642Z,66.70
2019-05-28T18:36:29.948Z,69.50
2019-05-28T18:40:40.952Z,71.60
2019-05-28T18:44:52.232Z,73.50
2019-05-28T18:49:03.818Z,74.70
2019-05-28T18:53:14.159Z,75.80
2019-05-28T18:57:24.505Z,76.80
2019-05-28T19:01:34.746Z,77.60
2019-05-28T19:05:45.046Z,78.50
2019-05-28T19:09:55.251Z,79.10
2019-05-28T19:14:05.659Z,79.80
2019-05-28T19:18:16.576Z,80.50
2019-05-28T19:22:26.813Z,81.10
2019-05-28T19:26:38.793Z,81.70
2019-05-28T19:30:50.606Z,82.20
2019-05-28T19:35:00.940Z,82.70
2019-05-28T19:39:17.797Z,83.30
2019-05-28T19:43:28.141Z,83.60
2019-05-28T19:47:38.487Z,84.00
2019-05-28T19:51:50.150Z,84.40
2019-05-28T19:56:01.052Z,84.80
2019-05-28T20:00:13.945Z,85.00
2019-05-28T20:04:24.254Z,86.10
2019-05-28T20:08:35.819Z,85.70
2019-05-28T20:12:46.044Z,86.00
2019-05-28T20:16:57.383Z,86.20
2019-05-28T20:21:08.325Z,86.20
2019-05-28T20:25:18.762Z,86.20
2019-05-28T20:29:35.658Z,86.10
2019-05-28T20:33:41.187Z,86.00
2019-05-28T20:37:51.598Z,86.20
2019-05-28T20:42:02.092Z,86.40
2019-05-28T20:46:12.430Z,86.30
2019-05-28T20:50:22.881Z,86.60
2019-05-28T20:54:33.262Z,87.00
2019-05-28T20:58:43.500Z,87.70
2019-05-28T21:02:53.914Z,88.30
2019-05-28T21:07:04.393Z,88.70
2019-05-28T21:11:14.696Z,88.80
2019-05-28T21:15:25.086Z,88.90
2019-05-28T21:19:35.317Z,89.30
2019-05-28T21:23:45.514Z,89.70
2019-05-28T21:27:56.481Z,90.00
2019-05-28T21:32:06.829Z,90.30
2019-05-28T21:36:17.126Z,90.60
2019-05-28T21:40:27.440Z,90.70
2019-05-28T21:44:37.678Z,90.80
2019-05-28T21:48:49.929Z,90.90
2019-05-28T21:53:01.174Z,91.10
2019-05-28T21:57:11.871Z,91.10
2019-05-28T22:01:25.404Z,91.30
2019-05-28T22:05:35.718Z,91.50
2019-05-28T22:09:48.091Z,91.50
2019-05-28T22:14:02.227Z,91.50
2019-05-28T22:18:13.845Z,91.70
2019-05-28T22:22:24.976Z,91.90
2019-05-28T22:26:36.002Z,91.90
2019-05-28T22:30:46.309Z,92.00
2019-05-28T22:34:57.727Z,92.00
2019-05-28T22:39:09.149Z,92.20
2019-05-28T22:43:31.062Z,92.40
2019-05-28T22:47:31.481Z,92.40
2019-05-28T22:51:41.919Z,92.40
2019-05-28T22:55:52.228Z,92.50
2019-05-28T23:00:03.108Z,92.70
2019-05-28T23:04:13.508Z,92.90
2019-05-28T23:08:23.704Z,93.10
2019-05-28T23:12:33.913Z,93.30
2019-05-28T23:16:44.788Z,93.40
2019-05-28T23:20:55.999Z,93.30
2019-05-28T23:25:08.013Z,93.00
2019-05-28T23:29:18.458Z,92.70
2019-05-28T23:33:28.796Z,92.30
2019-05-28T23:37:40.224Z,91.10
2019-05-28T23:41:52.132Z,90.10
2019-05-28T23:46:04.295Z,89.30
2019-05-28T23:50:18.022Z,89.20
2019-05-28T23:54:27.001Z,89.50
2019-05-28T23:58:37.244Z,90.10
